Wilson Maas — 8PSZ — position and weather

sailwx.info

Track history (hours):
 
Tides and Currents Weather Stations Pressure Air Temp Water Temp Dewpoint Dewpoint Depression Visibility Wind Speed Wind Dir Waves Ship Positions

Wilson Maas

Last reported at 2016-Jun-30 01:31 UTC. Time now 2016-Jun-30 03:17 UTC.
Position N 51°21' E 003°11'.

Length 78 m; draft 4.3 m.

Type: Cargo ship. MMSI: 314217000.

Date/timePositionNaut miles runAvg speedWind from/ knotsBaromVisibWave heightAir tempDewpointWater temp
2016-Jun-30 01:31N 51°21' E 003°11'0 0.0
2016-Jun-30 00:28N 51°21' E 003°11'0 0.0
2016-Jun-29 23:28N 51°21' E 003°11'0 0.0
2016-Jun-29 22:16N 51°21' E 003°11'0 0.0
2016-Jun-29 21:31N 51°21' E 003°11'0 0.0
2016-Jun-29 20:31N 51°21' E 003°11'0 0.0
2016-Jun-29 19:31N 51°21' E 003°11'0 0.0
2016-Jun-29 18:31N 51°21' E 003°11'0 0.0
2016-Jun-29 17:31N 51°21' E 003°11'0 0.0
2016-Jun-29 16:25N 51°21' E 003°11'2 2.2
2016-Jun-29 15:33N 51°23' E 003°12'2 2.0
2016-Jun-29 14:21N 51°25' E 003°14'0 0.0
2016-Jun-29 13:30N 51°25' E 003°14'0 0.0
2016-Jun-29 12:33N 51°25' E 003°14'0 0.1
2016-Jun-29 11:12N 51°25' E 003°14'0 0.1
2016-Jun-29 09:24N 51°25' E 003°14'0 0.0
2016-Jun-29 07:33N 51°25' E 003°14'0 0.0
2016-Jun-29 06:09N 51°25' E 003°15'0 0.0
2016-Jun-29 03:33N 51°25' E 003°15'0 0.1
2016-Jun-29 02:33N 51°25' E 003°14'0 0.1
2016-Jun-29 01:33N 51°25' E 003°14'0 0.0
2016-Jun-29 00:33N 51°25' E 003°14'0 0.0
2016-Jun-28 23:33N 51°25' E 003°14'3 3.3
2016-Jun-28 22:33N 51°25' E 003°19'1211.5
2016-Jun-28 21:33N 51°26' E 003°38'1010.0
2016-Jun-28 20:33N 51°21' E 003°51'8 8.0
2016-Jun-28 19:33N 51°26' E 004°01'6 5.9
2016-Jun-28 18:33N 51°23' E 004°09'7 7.0
2016-Jun-28 17:33N 51°18' E 004°17'2 2.2
2016-Jun-28 16:31N 51°17' E 004°20'1 0.9
2016-Jun-28 15:33N 51°17' E 004°21'0 0.0
2016-Jun-28 14:33N 51°17' E 004°21'0 0.0
2016-Jun-28 13:33N 51°17' E 004°21'0 0.0
2016-Jun-28 12:33N 51°17' E 004°21'0 0.0
2016-Jun-28 11:30N 51°17' E 004°21'0 0.0
2016-Jun-28 10:30N 51°17' E 004°21'0 0.0
2016-Jun-28 09:33N 51°17' E 004°21'0 0.0
2016-Jun-28 08:30N 51°17' E 004°21'0 0.0
2016-Jun-28 07:33N 51°17' E 004°21'0 0.0
2016-Jun-28 06:33N 51°17' E 004°21'0 0.0
2016-Jun-28 04:30N 51°17' E 004°21'0 0.0
2016-Jun-28 03:33N 51°17' E 004°21'0 0.0
2016-Jun-28 02:33N 51°17' E 004°21'0 0.0
2016-Jun-28 01:33N 51°17' E 004°21'0 0.0
2016-Jun-28 00:33N 51°17' E 004°21'0 0.0
2016-Jun-27 23:33N 51°17' E 004°21'0 0.0
2016-Jun-27 22:33N 51°17' E 004°21'0 0.0
2016-Jun-27 21:33N 51°17' E 004°21'1 1.3
2016-Jun-27 20:33N 51°18' E 004°20'3 3.4
2016-Jun-27 19:33N 51°21' E 004°17'1 0.5
2016-Jun-27 18:33N 51°21' E 004°16'5 4.6
2016-Jun-27 17:33N 51°24' E 004°11'7 7.3
2016-Jun-27 16:34N 51°26' E 003°60'10 9.7
2016-Jun-27 15:33N 51°21' E 003°46'1111.1
2016-Jun-27 14:33N 51°27' E 003°31'1212.4
2016-Jun-27 13:33N 51°38' E 003°21'33 8.3
2016-Jun-27 09:33N 52°03' E 003°56'9 9.1
2016-Jun-27 08:33N 51°58' E 004°09'9 9.3
2016-Jun-27 07:34N 51°54' E 004°22'2 1.7
2016-Jun-27 06:27N 51°54' E 004°25'0 0.0
2016-Jun-27 05:33N 51°54' E 004°25'0 0.0
2016-Jun-27 04:33N 51°54' E 004°25'0 0.0
2016-Jun-27 03:33N 51°54' E 004°25'0 0.0
2016-Jun-27 02:33N 51°54' E 004°25'0 0.0
2016-Jun-27 01:33N 51°54' E 004°25'0 0.0
2016-Jun-27 00:33N 51°54' E 004°25'0 0.0
2016-Jun-26 23:33N 51°54' E 004°25'0 0.0
2016-Jun-26 22:33N 51°54' E 004°25'0 0.0
2016-Jun-26 21:33N 51°54' E 004°25'0 0.0
2016-Jun-26 20:33N 51°54' E 004°25'0 0.0
2016-Jun-26 19:33N 51°54' E 004°25'0 0.0
2016-Jun-26 18:33N 51°54' E 004°25'0 0.0
2016-Jun-26 17:33N 51°54' E 004°25'0 0.0
2016-Jun-26 16:33N 51°54' E 004°25'0 0.0
2016-Jun-26 15:30N 51°54' E 004°25'0 0.0
2016-Jun-26 14:33N 51°54' E 004°25'0 0.0
2016-Jun-26 13:33N 51°54' E 004°25'0 0.0
2016-Jun-26 12:33N 51°54' E 004°25'0 0.0
2016-Jun-26 11:33N 51°54' E 004°25'0 0.0
2016-Jun-26 10:33N 51°54' E 004°25'0 0.0
2016-Jun-26 09:33N 51°54' E 004°25'0 0.0
2016-Jun-26 08:33N 51°54' E 004°25'0 0.0
2016-Jun-26 07:33N 51°54' E 004°25'0 0.0
2016-Jun-26 06:31N 51°54' E 004°25'0 0.0
2016-Jun-26 05:31N 51°54' E 004°25'0 0.0
2016-Jun-26 04:31N 51°54' E 004°25'0 0.0
2016-Jun-26 03:31N 51°54' E 004°25'0 0.0
2016-Jun-26 02:31N 51°54' E 004°25'0 0.0
2016-Jun-26 01:31N 51°54' E 004°25'0 0.0
2016-Jun-26 00:31N 51°54' E 004°25'0 0.0
2016-Jun-25 23:32N 51°54' E 004°25'5 4.7
2016-Jun-25 22:33N 51°54' E 004°17'7 6.7
2016-Jun-25 21:33N 51°58' E 004°09'8 8.4
2016-Jun-25 20:34N 52°00' E 003°56'128 9.8
2016-Jun-25 07:34N 54°02' E 004°56'27810.3
2016-Jun-24 04:30N 58°40' E 004°48'2310.8
2016-Jun-24 02:25N 59°02' E 004°43'  
Track history (hours):
 
Tides and Currents Weather Stations Pressure Air Temp Water Temp Dewpoint Dewpoint Depression Visibility Wind Speed Wind Dir Waves Ship Positions

Wilson Maas

Last reported at 2016-Jun-30 01:31 UTC. Time now 2016-Jun-30 03:17 UTC.
Position N 51°21' E 003°11'.

Length 78 m; draft 4.3 m.

Type: Cargo ship. MMSI: 314217000.

Date/timePositionNaut miles runAvg speedWind from/ knotsBaromVisibWave heightAir tempDewpointWater temp
2016-Jun-30 01:31N 51°21' E 003°11'0 0.0
2016-Jun-30 00:28N 51°21' E 003°11'0 0.0
2016-Jun-29 23:28N 51°21' E 003°11'0 0.0
2016-Jun-29 22:16N 51°21' E 003°11'0 0.0
2016-Jun-29 21:31N 51°21' E 003°11'0 0.0
2016-Jun-29 20:31N 51°21' E 003°11'0 0.0
2016-Jun-29 19:31N 51°21' E 003°11'0 0.0
2016-Jun-29 18:31N 51°21' E 003°11'0 0.0
2016-Jun-29 17:31N 51°21' E 003°11'0 0.0
2016-Jun-29 16:25N 51°21' E 003°11'2 2.2
2016-Jun-29 15:33N 51°23' E 003°12'2 2.0
2016-Jun-29 14:21N 51°25' E 003°14'0 0.0
2016-Jun-29 13:30N 51°25' E 003°14'0 0.0
2016-Jun-29 12:33N 51°25' E 003°14'0 0.1
2016-Jun-29 11:12N 51°25' E 003°14'0 0.1
2016-Jun-29 09:24N 51°25' E 003°14'0 0.0
2016-Jun-29 07:33N 51°25' E 003°14'0 0.0
2016-Jun-29 06:09N 51°25' E 003°15'0 0.0
2016-Jun-29 03:33N 51°25' E 003°15'0 0.1
2016-Jun-29 02:33N 51°25' E 003°14'0 0.1
2016-Jun-29 01:33N 51°25' E 003°14'0 0.0
2016-Jun-29 00:33N 51°25' E 003°14'0 0.0
2016-Jun-28 23:33N 51°25' E 003°14'3 3.3
2016-Jun-28 22:33N 51°25' E 003°19'1211.5
2016-Jun-28 21:33N 51°26' E 003°38'1010.0
2016-Jun-28 20:33N 51°21' E 003°51'8 8.0
2016-Jun-28 19:33N 51°26' E 004°01'6 5.9
2016-Jun-28 18:33N 51°23' E 004°09'7 7.0
2016-Jun-28 17:33N 51°18' E 004°17'2 2.2
2016-Jun-28 16:31N 51°17' E 004°20'1 0.9
2016-Jun-28 15:33N 51°17' E 004°21'0 0.0
2016-Jun-28 14:33N 51°17' E 004°21'0 0.0
2016-Jun-28 13:33N 51°17' E 004°21'0 0.0
2016-Jun-28 12:33N 51°17' E 004°21'0 0.0
2016-Jun-28 11:30N 51°17' E 004°21'0 0.0
2016-Jun-28 10:30N 51°17' E 004°21'0 0.0
2016-Jun-28 09:33N 51°17' E 004°21'0 0.0
2016-Jun-28 08:30N 51°17' E 004°21'0 0.0
2016-Jun-28 07:33N 51°17' E 004°21'0 0.0
2016-Jun-28 06:33N 51°17' E 004°21'0 0.0
2016-Jun-28 04:30N 51°17' E 004°21'0 0.0
2016-Jun-28 03:33N 51°17' E 004°21'0 0.0
2016-Jun-28 02:33N 51°17' E 004°21'0 0.0
2016-Jun-28 01:33N 51°17' E 004°21'0 0.0
2016-Jun-28 00:33N 51°17' E 004°21'0 0.0
2016-Jun-27 23:33N 51°17' E 004°21'0 0.0
2016-Jun-27 22:33N 51°17' E 004°21'0 0.0
2016-Jun-27 21:33N 51°17' E 004°21'1 1.3
2016-Jun-27 20:33N 51°18' E 004°20'3 3.4
2016-Jun-27 19:33N 51°21' E 004°17'1 0.5
2016-Jun-27 18:33N 51°21' E 004°16'5 4.6
2016-Jun-27 17:33N 51°24' E 004°11'7 7.3
2016-Jun-27 16:34N 51°26' E 003°60'10 9.7
2016-Jun-27 15:33N 51°21' E 003°46'1111.1
2016-Jun-27 14:33N 51°27' E 003°31'1212.4
2016-Jun-27 13:33N 51°38' E 003°21'33 8.3
2016-Jun-27 09:33N 52°03' E 003°56'9 9.1
2016-Jun-27 08:33N 51°58' E 004°09'9 9.3
2016-Jun-27 07:34N 51°54' E 004°22'2 1.7
2016-Jun-27 06:27N 51°54' E 004°25'0 0.0
2016-Jun-27 05:33N 51°54' E 004°25'0 0.0
2016-Jun-27 04:33N 51°54' E 004°25'0 0.0
2016-Jun-27 03:33N 51°54' E 004°25'0 0.0
2016-Jun-27 02:33N 51°54' E 004°25'0 0.0
2016-Jun-27 01:33N 51°54' E 004°25'0 0.0
2016-Jun-27 00:33N 51°54' E 004°25'0 0.0
2016-Jun-26 23:33N 51°54' E 004°25'0 0.0
2016-Jun-26 22:33N 51°54' E 004°25'0 0.0
2016-Jun-26 21:33N 51°54' E 004°25'0 0.0
2016-Jun-26 20:33N 51°54' E 004°25'0 0.0
2016-Jun-26 19:33N 51°54' E 004°25'0 0.0
2016-Jun-26 18:33N 51°54' E 004°25'0 0.0
2016-Jun-26 17:33N 51°54' E 004°25'0 0.0
2016-Jun-26 16:33N 51°54' E 004°25'0 0.0
2016-Jun-26 15:30N 51°54' E 004°25'0 0.0
2016-Jun-26 14:33N 51°54' E 004°25'0 0.0
2016-Jun-26 13:33N 51°54' E 004°25'0 0.0
2016-Jun-26 12:33N 51°54' E 004°25'0 0.0
2016-Jun-26 11:33N 51°54' E 004°25'0 0.0
2016-Jun-26 10:33N 51°54' E 004°25'0 0.0
2016-Jun-26 09:33N 51°54' E 004°25'0 0.0
2016-Jun-26 08:33N 51°54' E 004°25'0 0.0
2016-Jun-26 07:33N 51°54' E 004°25'0 0.0
2016-Jun-26 06:31N 51°54' E 004°25'0 0.0
2016-Jun-26 05:31N 51°54' E 004°25'0 0.0
2016-Jun-26 04:31N 51°54' E 004°25'0 0.0
2016-Jun-26 03:31N 51°54' E 004°25'0 0.0
2016-Jun-26 02:31N 51°54' E 004°25'0 0.0
2016-Jun-26 01:31N 51°54' E 004°25'0 0.0
2016-Jun-26 00:31N 51°54' E 004°25'0 0.0
2016-Jun-25 23:32N 51°54' E 004°25'5 4.7
2016-Jun-25 22:33N 51°54' E 004°17'7 6.7
2016-Jun-25 21:33N 51°58' E 004°09'8 8.4
2016-Jun-25 20:34N 52°00' E 003°56'128 9.8
2016-Jun-25 07:34N 54°02' E 004°56'27810.3
2016-Jun-24 04:30N 58°40' E 004°48'2310.8
2016-Jun-24 02:25N 59°02' E 004°43'  

Dump ship's entire track history